createdAt,value
2018-07-15T00:03:22.996Z,21.94
2018-07-15T00:08:18.281Z,22.17
2018-07-15T00:13:13.566Z,22.07
2018-07-15T00:18:08.437Z,22.10
2018-07-15T00:23:03.139Z,22.25
2018-07-15T00:27:57.756Z,22.23
2018-07-15T00:32:51.987Z,22.28
2018-07-15T00:37:46.588Z,22.09
2018-07-15T00:42:41.188Z,22.22
2018-07-15T00:47:35.799Z,22.18
2018-07-15T00:52:30.436Z,22.20
2018-07-15T00:57:25.173Z,21.24
2018-07-15T01:02:19.921Z,20.47
2018-07-15T01:07:14.636Z,19.97
2018-07-15T01:12:09.031Z,19.79
2018-07-15T01:17:03.797Z,19.75
2018-07-15T01:21:58.512Z,19.89
2018-07-15T01:26:53.163Z,20.00
2018-07-15T01:31:47.825Z,19.97
2018-07-15T01:36:42.501Z,20.05
2018-07-15T01:41:37.177Z,20.23
2018-07-15T01:46:31.850Z,20.23
2018-07-15T01:51:26.405Z,20.16
2018-07-15T01:56:20.980Z,20.20
2018-07-15T02:01:15.623Z,20.43
2018-07-15T02:06:09.868Z,20.37
2018-07-15T02:11:04.463Z,20.38
2018-07-15T02:15:59.088Z,20.36
2018-07-15T02:20:53.784Z,20.45
2018-07-15T02:25:48.409Z,20.59
2018-07-15T02:30:43.048Z,20.70
2018-07-15T02:35:37.640Z,20.54
2018-07-15T02:40:32.486Z,20.57
2018-07-15T02:45:27.311Z,20.52
2018-07-15T02:50:21.900Z,20.62
2018-07-15T02:55:16.580Z,20.60
2018-07-15T03:00:11.167Z,20.63
2018-07-15T03:05:05.820Z,20.57
2018-07-15T03:10:00.188Z,20.50
2018-07-15T03:14:55.108Z,20.48
2018-07-15T03:19:49.767Z,20.50
2018-07-15T03:24:44.399Z,20.42
2018-07-15T03:29:39.072Z,20.32
2018-07-15T03:34:33.640Z,20.39
2018-07-15T03:39:28.244Z,20.33
2018-07-15T03:44:22.903Z,20.29
2018-07-15T03:49:17.207Z,20.31
2018-07-15T03:54:11.890Z,20.48
2018-07-15T03:59:06.494Z,20.41
2018-07-15T04:04:01.687Z,20.24
2018-07-15T04:08:56.473Z,20.09
2018-07-15T04:13:51.430Z,20.10
2018-07-15T04:18:46.100Z,20.33
2018-07-15T04:23:40.748Z,20.22
2018-07-15T04:28:35.456Z,20.00
2018-07-15T04:33:30.089Z,19.79
2018-07-15T04:38:24.765Z,20.13
2018-07-15T04:43:19.582Z,20.19
2018-07-15T04:48:14.241Z,20.23
2018-07-15T04:53:08.939Z,20.09
2018-07-15T04:58:04.530Z,20.07
2018-07-15T05:02:59.280Z,19.35
2018-07-15T05:07:53.967Z,18.68
2018-07-15T05:12:48.707Z,18.44
2018-07-15T05:17:43.369Z,18.41
2018-07-15T05:22:37.969Z,18.35
2018-07-15T05:27:32.579Z,18.40
2018-07-15T05:32:27.156Z,18.43
2018-07-15T05:37:21.731Z,18.40
2018-07-15T05:42:16.357Z,18.41
2018-07-15T05:47:10.976Z,18.49
2018-07-15T05:52:06.850Z,18.68
2018-07-15T05:57:01.471Z,18.66
2018-07-15T06:01:56.135Z,18.67
2018-07-15T06:06:50.819Z,18.75
2018-07-15T06:11:46.599Z,18.62
2018-07-15T06:16:41.183Z,18.66
2018-07-15T06:21:35.838Z,18.74
2018-07-15T06:26:30.513Z,18.74
2018-07-15T06:31:25.190Z,18.76
2018-07-15T06:36:19.832Z,18.81
2018-07-15T06:41:14.568Z,18.98
2018-07-15T06:46:09.427Z,18.99
2018-07-15T06:51:03.750Z,19.05
2018-07-15T06:55:58.420Z,19.03
2018-07-15T07:00:53.010Z,19.15
2018-07-15T07:05:47.713Z,19.24
2018-07-15T07:10:42.444Z,19.32
2018-07-15T07:20:26.939Z,19.72
2018-07-15T07:25:21.681Z,19.80
2018-07-15T07:30:16.362Z,20.09
2018-07-15T07:35:10.948Z,20.32
2018-07-15T07:40:06.780Z,20.51
2018-07-15T07:45:01.399Z,20.64
2018-07-15T07:49:56.009Z,21.41
2018-07-15T07:54:50.656Z,21.62
2018-07-15T07:59:44.964Z,21.49
2018-07-15T08:04:40.294Z,21.68
2018-07-15T08:09:34.933Z,22.08
2018-07-15T08:14:29.679Z,23.31
2018-07-15T08:19:24.447Z,23.59
2018-07-15T08:24:19.289Z,23.85
2018-07-15T08:29:14.903Z,25.06
2018-07-15T08:34:09.626Z,24.77
2018-07-15T08:39:05.453Z,24.38
2018-07-15T08:44:00.111Z,24.62
2018-07-15T08:48:54.780Z,25.32
2018-07-15T08:53:49.519Z,25.12
2018-07-15T08:58:44.722Z,25.31
2018-07-15T09:03:39.386Z,25.44
2018-07-15T09:08:34.442Z,25.34
2018-07-15T09:13:29.083Z,24.90
2018-07-15T09:18:23.716Z,24.85
2018-07-15T09:23:18.311Z,24.84
2018-07-15T09:28:13.177Z,24.85
2018-07-15T09:33:07.864Z,25.34
2018-07-15T09:38:02.943Z,25.58
2018-07-15T09:42:57.524Z,25.46
2018-07-15T09:47:52.293Z,25.55
2018-07-15T09:52:47.033Z,25.86
2018-07-15T09:57:41.651Z,25.87
2018-07-15T10:02:36.284Z,26.06
2018-07-15T10:07:31.063Z,25.83
2018-07-15T10:12:25.797Z,26.18
2018-07-15T10:17:20.542Z,26.79
2018-07-15T10:22:15.170Z,27.11
2018-07-15T10:27:09.799Z,26.73
2018-07-15T10:32:04.616Z,26.78
2018-07-15T10:36:59.283Z,27.04
2018-07-15T10:41:53.940Z,27.39
2018-07-15T10:46:48.704Z,27.47
2018-07-15T10:51:43.397Z,27.20
2018-07-15T10:56:38.060Z,27.02
2018-07-15T11:01:32.704Z,27.48
2018-07-15T11:06:27.052Z,27.77
2018-07-15T11:11:21.701Z,28.18
2018-07-15T11:16:16.478Z,28.07
2018-07-15T11:21:11.213Z,28.26
2018-07-15T11:26:05.969Z,28.17
2018-07-15T11:31:00.699Z,28.32
2018-07-15T11:35:55.229Z,28.68
2018-07-15T11:40:49.911Z,28.59
2018-07-15T11:45:44.525Z,28.90
2018-07-15T11:50:39.156Z,29.06
2018-07-15T11:55:33.718Z,29.23
2018-07-15T12:00:28.351Z,29.10
2018-07-15T12:05:22.940Z,28.68
2018-07-15T12:10:17.541Z,29.33
2018-07-15T12:15:12.130Z,29.32
2018-07-15T12:20:06.796Z,29.27
2018-07-15T12:25:01.468Z,29.07
2018-07-15T12:29:56.112Z,28.94
2018-07-15T12:34:50.762Z,29.14
2018-07-15T12:39:45.355Z,29.30
2018-07-15T12:44:39.978Z,29.46
2018-07-15T12:49:34.647Z,29.71
2018-07-15T12:54:29.379Z,29.36
2018-07-15T12:59:24.055Z,29.28
2018-07-15T13:04:18.751Z,29.33
2018-07-15T13:09:13.383Z,29.45
2018-07-15T13:14:08.029Z,29.44
2018-07-15T13:19:02.738Z,29.52
2018-07-15T13:23:57.499Z,29.36
2018-07-15T13:28:52.153Z,29.49
2018-07-15T13:33:47.045Z,28.55
2018-07-15T13:38:41.651Z,28.67
2018-07-15T13:43:36.430Z,28.56
2018-07-15T13:48:31.292Z,28.48
2018-07-15T13:53:25.932Z,28.28
2018-07-15T13:58:20.636Z,28.58
2018-07-15T14:03:15.348Z,28.36
2018-07-15T14:08:10.093Z,28.28
2018-07-15T14:13:04.877Z,28.52
2018-07-15T14:17:59.479Z,28.82
2018-07-15T14:22:54.211Z,28.93
2018-07-15T14:27:48.850Z,28.70
2018-07-15T14:32:43.401Z,28.66
2018-07-15T14:37:38.205Z,28.95
2018-07-15T14:42:32.811Z,29.04
2018-07-15T14:47:27.490Z,28.78
2018-07-15T14:52:22.188Z,28.66
2018-07-15T14:57:16.860Z,28.57
2018-07-15T15:02:11.577Z,28.60
2018-07-15T15:07:06.420Z,28.74
2018-07-15T15:12:01.124Z,28.69
2018-07-15T15:16:55.897Z,28.63
2018-07-15T15:21:53.423Z,28.61
2018-07-15T15:26:48.197Z,28.82
2018-07-15T15:31:43.148Z,29.02
2018-07-15T15:36:37.895Z,29.37
2018-07-15T15:41:32.608Z,29.11
2018-07-15T15:46:27.219Z,28.80
2018-07-15T15:51:21.904Z,28.62
2018-07-15T15:56:16.468Z,28.57
2018-07-15T16:01:11.120Z,28.59
2018-07-15T16:06:05.949Z,28.65
2018-07-15T16:11:00.527Z,28.73
2018-07-15T16:15:55.256Z,28.58
2018-07-15T16:20:49.831Z,28.60
2018-07-15T16:25:44.551Z,28.92
2018-07-15T16:30:39.299Z,28.86
2018-07-15T16:35:33.972Z,28.22
2018-07-15T16:40:28.729Z,28.30
2018-07-15T16:45:23.315Z,27.08
2018-07-15T16:50:18.007Z,26.57
2018-07-15T16:55:12.326Z,26.62
2018-07-15T17:00:07.229Z,26.77
2018-07-15T17:05:01.896Z,26.84
2018-07-15T17:09:57.249Z,26.58
2018-07-15T17:14:52.013Z,25.86
2018-07-15T17:19:46.728Z,25.61
2018-07-15T17:24:41.419Z,25.43
2018-07-15T17:29:35.738Z,25.40
2018-07-15T17:34:30.481Z,25.41
2018-07-15T17:44:25.947Z,25.21
2018-07-15T17:49:20.918Z,25.20
2018-07-15T17:54:15.693Z,25.00
2018-07-15T17:59:10.970Z,24.72
2018-07-15T18:04:05.713Z,24.57
2018-07-15T18:09:00.527Z,24.39
2018-07-15T18:13:55.216Z,24.39
2018-07-15T18:18:54.078Z,24.14
2018-07-15T18:23:48.892Z,24.08
2018-07-15T18:28:44.255Z,23.94
2018-07-15T18:33:39.251Z,23.75
2018-07-15T18:38:34.326Z,23.74
2018-07-15T18:43:29.368Z,23.51
2018-07-15T18:48:24.365Z,23.40
2018-07-15T18:53:19.132Z,23.35
2018-07-15T18:58:13.848Z,23.28
2018-07-15T19:03:08.600Z,23.21
2018-07-15T19:08:03.399Z,22.98
2018-07-15T19:12:58.173Z,22.80
2018-07-15T19:17:52.902Z,22.52
2018-07-15T19:22:47.690Z,22.53
2018-07-15T19:27:42.421Z,22.53
2018-07-15T19:32:37.116Z,22.47
2018-07-15T19:37:31.949Z,22.57
2018-07-15T19:42:26.772Z,22.62
2018-07-15T19:47:21.763Z,22.44
2018-07-15T19:52:16.489Z,22.39
2018-07-15T19:57:13.159Z,22.37
2018-07-15T20:02:08.127Z,22.38
2018-07-15T20:07:02.855Z,22.37
2018-07-15T20:11:57.615Z,22.45
2018-07-15T20:16:52.316Z,22.31
2018-07-15T20:21:47.108Z,22.34
2018-07-15T20:26:41.828Z,22.40
2018-07-15T20:31:36.567Z,22.49
2018-07-15T20:36:31.373Z,22.02
2018-07-15T20:41:26.346Z,20.56
2018-07-15T20:46:21.289Z,20.37
2018-07-15T20:51:16.197Z,20.22
2018-07-15T20:56:11.087Z,20.06
2018-07-15T21:01:05.702Z,20.22
2018-07-15T21:06:00.447Z,20.22
2018-07-15T21:10:55.213Z,20.40
2018-07-15T21:15:50.043Z,20.46
2018-07-15T21:20:45.032Z,20.43
2018-07-15T21:25:40.119Z,20.34
2018-07-15T21:30:35.056Z,20.31
2018-07-15T21:35:30.257Z,20.16
2018-07-15T21:40:25.367Z,20.05
2018-07-15T21:45:21.067Z,19.72
2018-07-15T21:50:16.577Z,19.66
2018-07-15T21:55:13.988Z,19.68
2018-07-15T22:00:09.514Z,19.48
2018-07-15T22:05:04.854Z,19.46
2018-07-15T22:10:12.153Z,19.55
2018-07-15T22:15:07.021Z,19.55
2018-07-15T22:20:01.953Z,19.56
2018-07-15T22:24:56.828Z,19.72
2018-07-15T22:29:51.686Z,19.67
2018-07-15T22:34:46.459Z,19.70
2018-07-15T22:39:41.223Z,19.85
2018-07-15T22:44:36.107Z,19.77
2018-07-15T22:49:30.920Z,19.59
2018-07-15T22:54:25.924Z,19.74
2018-07-15T22:59:20.802Z,19.73
2018-07-15T23:04:16.288Z,19.89
2018-07-15T23:09:12.145Z,19.79
2018-07-15T23:14:07.608Z,19.57
2018-07-15T23:19:02.448Z,19.81
2018-07-15T23:23:57.236Z,19.76
2018-07-15T23:28:51.643Z,19.48
2018-07-15T23:33:46.377Z,19.68
2018-07-15T23:38:41.360Z,19.71
2018-07-15T23:43:36.829Z,19.71
2018-07-15T23:48:31.587Z,19.60
2018-07-15T23:53:26.395Z,19.59
2018-07-15T23:58:21.144Z,19.54
